createdAt,value
2018-04-10T00:00:58.275Z,61.34
2018-04-10T00:03:27.663Z,61.55
2018-04-10T00:05:56.263Z,61.68
2018-04-10T00:08:25.651Z,61.69
2018-04-10T00:10:54.102Z,61.74
2018-04-10T00:13:22.418Z,61.91
2018-04-10T00:15:51.555Z,62.14
2018-04-10T00:18:19.942Z,62.27
2018-04-10T00:20:48.526Z,62.30
2018-04-10T00:23:17.147Z,62.43
2018-04-10T00:25:46.026Z,62.45
2018-04-10T00:28:14.415Z,62.44
2018-04-10T00:30:42.684Z,62.45
2018-04-10T00:33:11.005Z,62.38
2018-04-10T00:35:40.200Z,62.56
2018-04-10T00:38:09.381Z,62.44
2018-04-10T00:40:38.401Z,62.80
2018-04-10T00:43:06.860Z,62.98
2018-04-10T00:45:35.887Z,63.14
2018-04-10T00:48:04.307Z,63.44
2018-04-10T00:50:32.586Z,63.61
2018-04-10T00:53:14.525Z,63.63
2018-04-10T00:55:43.743Z,63.58
2018-04-10T00:58:12.218Z,63.62
2018-04-10T01:00:40.704Z,63.71
2018-04-10T01:03:09.160Z,63.89
2018-04-10T01:05:38.322Z,64.00
2018-04-10T01:08:06.619Z,64.13
2018-04-10T01:10:34.897Z,64.27
2018-04-10T01:13:03.231Z,64.33
2018-04-10T01:15:31.563Z,64.46
2018-04-10T01:18:00.537Z,64.50
2018-04-10T01:20:30.219Z,64.48
2018-04-10T01:22:58.494Z,64.39
2018-04-10T01:25:26.990Z,64.50
2018-04-10T01:27:55.516Z,64.48
2018-04-10T01:30:24.540Z,64.39
2018-04-10T01:32:53.171Z,64.50
2018-04-10T01:35:21.583Z,64.58
2018-04-10T01:37:49.931Z,64.68
2018-04-10T01:40:18.237Z,64.88
2018-04-10T01:42:46.686Z,64.92
2018-04-10T01:45:14.959Z,64.88
2018-04-10T01:47:43.258Z,64.96
2018-04-10T01:50:12.641Z,64.96
2018-04-10T01:52:40.950Z,65.11
2018-04-10T01:55:09.310Z,64.97
2018-04-10T01:57:38.514Z,65.16
2018-04-10T02:00:07.519Z,65.21
2018-04-10T02:02:36.930Z,65.18
2018-04-10T02:05:05.527Z,65.26
2018-04-10T02:07:34.089Z,65.44
2018-04-10T02:10:03.143Z,65.50
2018-04-10T02:12:31.394Z,65.55
2018-04-10T02:14:59.634Z,65.49
2018-04-10T02:17:51.952Z,65.69
2018-04-10T02:20:20.618Z,65.74
2018-04-10T02:22:48.833Z,65.71
2018-04-10T02:25:18.036Z,65.82
2018-04-10T02:27:47.290Z,65.76
2018-04-10T02:30:15.668Z,65.74
2018-04-10T02:32:44.047Z,65.73
2018-04-10T02:35:12.292Z,65.76
2018-04-10T02:37:40.567Z,65.89
2018-04-10T02:40:08.822Z,65.90
2018-04-10T02:42:38.058Z,66.00
2018-04-10T02:45:06.317Z,66.24
2018-04-10T02:47:35.056Z,66.31
2018-04-10T02:50:03.659Z,66.40
2018-04-10T02:52:32.624Z,66.60
2018-04-10T02:55:01.012Z,66.66
2018-04-10T02:57:29.490Z,66.77
2018-04-10T02:59:57.760Z,66.90
2018-04-10T03:02:26.033Z,66.99
2018-04-10T03:04:54.276Z,67.19
2018-04-10T03:07:22.900Z,67.46
2018-04-10T03:09:51.126Z,68.06
2018-04-10T03:12:19.652Z,68.49
2018-04-10T03:14:47.915Z,68.72
2018-04-10T03:17:16.202Z,68.89
2018-04-10T03:19:44.437Z,68.88
2018-04-10T03:22:12.812Z,68.56
2018-04-10T03:24:41.836Z,68.61
2018-04-10T03:27:10.108Z,68.63
2018-04-10T03:29:38.577Z,68.94
2018-04-10T03:32:07.108Z,68.75
2018-04-10T03:34:35.357Z,68.80
2018-04-10T03:37:03.766Z,68.74
2018-04-10T03:39:32.160Z,68.45
2018-04-10T03:42:00.388Z,68.47
2018-04-10T03:44:28.637Z,68.45
2018-04-10T03:46:56.882Z,68.41
2018-04-10T03:49:25.333Z,68.26
2018-04-10T03:51:53.670Z,68.33
2018-04-10T03:54:22.305Z,68.39
2018-04-10T03:56:50.605Z,68.32
2018-04-10T03:59:19.026Z,68.34
2018-04-10T04:01:47.634Z,68.43
2018-04-10T04:04:16.322Z,68.42
2018-04-10T04:06:44.594Z,68.59
2018-04-10T04:09:13.222Z,69.08
2018-04-10T04:11:42.523Z,69.25
2018-04-10T04:14:10.970Z,69.26
2018-04-10T04:17:42.461Z,69.02
2018-04-10T04:21:26.432Z,68.87
2018-04-10T04:23:55.469Z,68.65
2018-04-10T04:26:23.833Z,68.99
2018-04-10T04:28:52.510Z,68.91
2018-04-10T04:31:20.873Z,69.10
2018-04-10T04:33:50.111Z,69.07
2018-04-10T04:36:18.441Z,69.21
2018-04-10T04:38:46.912Z,69.43
2018-04-10T04:41:16.298Z,69.66
2018-04-10T04:43:44.973Z,69.36
2018-04-10T04:46:13.541Z,69.49
2018-04-10T04:48:42.125Z,69.35
2018-04-10T04:51:10.547Z,69.31
2018-04-10T04:53:39.933Z,69.22
2018-04-10T04:56:08.475Z,69.28
2018-04-10T04:58:36.935Z,69.15
2018-04-10T05:01:05.982Z,68.96
2018-04-10T05:03:34.430Z,68.83
2018-04-10T05:06:02.785Z,68.82
2018-04-10T05:08:31.141Z,68.68
2018-04-10T05:10:59.697Z,68.41
2018-04-10T05:13:28.178Z,68.38
2018-04-10T05:15:56.501Z,68.24
2018-04-10T05:18:25.590Z,67.93
2018-04-10T05:20:54.836Z,67.50
2018-04-10T05:23:23.317Z,67.50
2018-04-10T05:25:51.804Z,67.20
2018-04-10T05:28:20.370Z,67.03
2018-04-10T05:30:48.739Z,66.81
2018-04-10T05:33:17.265Z,66.36
2018-04-10T05:35:45.579Z,66.25
2018-04-10T05:38:16.426Z,65.58
2018-04-10T05:40:45.934Z,65.42
2018-04-10T05:43:15.010Z,64.98
2018-04-10T05:45:44.040Z,64.73
2018-04-10T05:48:12.302Z,64.65
2018-04-10T05:50:40.762Z,64.34
2018-04-10T05:53:09.106Z,64.05
2018-04-10T05:55:37.434Z,63.63
2018-04-10T05:58:06.844Z,63.40
2018-04-10T06:00:36.062Z,63.42
2018-04-10T06:03:04.450Z,63.71
2018-04-10T06:05:33.052Z,63.85
2018-04-10T06:08:01.516Z,63.77
2018-04-10T06:10:30.210Z,63.71
2018-04-10T06:13:05.109Z,63.16
2018-04-10T06:15:33.401Z,63.32
2018-04-10T06:18:02.032Z,63.53
2018-04-10T06:20:30.390Z,63.53
2018-04-10T06:22:58.763Z,63.37
2018-04-10T06:25:27.090Z,63.45
2018-04-10T06:27:56.466Z,63.54
2018-04-10T06:30:24.937Z,63.32
2018-04-10T06:32:53.797Z,63.05
2018-04-10T06:35:22.569Z,62.61
2018-04-10T06:37:51.199Z,62.59
2018-04-10T06:40:19.851Z,62.61
2018-04-10T06:42:48.458Z,62.67
2018-04-10T06:45:16.889Z,62.29
2018-04-10T06:47:46.352Z,61.84
2018-04-10T06:50:15.693Z,61.56
2018-04-10T06:52:44.703Z,61.58
2018-04-10T06:55:13.046Z,61.52
2018-04-10T06:57:41.614Z,60.98
2018-04-10T07:00:09.930Z,60.60
2018-04-10T07:02:39.083Z,60.45
2018-04-10T07:05:07.696Z,60.24
2018-04-10T07:07:36.022Z,59.58
2018-04-10T07:10:04.379Z,59.38
2018-04-10T07:12:33.702Z,58.83
2018-04-10T07:15:02.226Z,58.56
2018-04-10T07:17:30.605Z,58.19
2018-04-10T07:19:59.274Z,57.50
2018-04-10T07:22:27.586Z,57.07
2018-04-10T07:24:57.039Z,56.51
2018-04-10T07:27:25.315Z,56.02
2018-04-10T07:29:53.765Z,55.25
2018-04-10T07:32:22.777Z,55.12
2018-04-10T07:34:51.102Z,54.66
2018-04-10T07:37:19.656Z,53.80
2018-04-10T07:39:48.089Z,53.12
2018-04-10T07:42:17.381Z,53.12
2018-04-10T07:44:45.645Z,52.68
2018-04-10T07:47:14.227Z,52.70
2018-04-10T07:49:42.682Z,52.34
2018-04-10T07:52:11.044Z,51.97
2018-04-10T07:54:39.566Z,51.90
2018-04-10T07:57:07.870Z,51.86
2018-04-10T07:59:36.946Z,51.94
2018-04-10T08:02:05.221Z,51.55
2018-04-10T08:04:33.623Z,50.22
2018-04-10T08:07:02.721Z,50.33
2018-04-10T08:09:31.787Z,50.14
2018-04-10T08:12:00.298Z,49.95
2018-04-10T08:14:29.338Z,49.75
2018-04-10T08:16:57.659Z,49.46
2018-04-10T08:19:26.111Z,51.00
2018-04-10T08:21:54.385Z,49.26
2018-04-10T08:24:24.704Z,48.94
2018-04-10T08:26:52.966Z,49.00
2018-04-10T08:29:21.275Z,48.39
2018-04-10T08:31:56.574Z,48.27
2018-04-10T08:34:25.012Z,48.33
2018-04-10T08:36:53.315Z,47.80
2018-04-10T08:39:22.328Z,47.43
2018-04-10T08:41:50.611Z,47.33
2018-04-10T08:44:18.903Z,46.89
2018-04-10T08:46:47.266Z,46.71
2018-04-10T08:49:15.995Z,46.50
2018-04-10T08:51:44.425Z,46.22
2018-04-10T08:54:13.008Z,45.76
2018-04-10T08:56:41.490Z,46.01
2018-04-10T08:59:09.870Z,45.70
2018-04-10T09:01:38.377Z,46.01
2018-04-10T09:04:07.059Z,46.12
2018-04-10T09:06:35.555Z,46.39
2018-04-10T09:09:05.485Z,45.93
2018-04-10T09:11:33.915Z,45.97
2018-04-10T09:14:02.271Z,45.66
2018-04-10T09:16:31.472Z,45.28
2018-04-10T09:19:00.507Z,45.08
2018-04-10T09:21:28.947Z,45.03
2018-04-10T09:23:58.346Z,46.37
2018-04-10T09:26:27.562Z,45.92
2018-04-10T09:28:55.955Z,45.98
2018-04-10T09:31:24.414Z,45.87
2018-04-10T09:33:53.002Z,46.32
2018-04-10T09:36:21.584Z,46.21
2018-04-10T09:38:49.859Z,46.19
2018-04-10T09:41:18.406Z,45.83
2018-04-10T09:43:46.800Z,45.63
2018-04-10T09:46:15.214Z,45.65
2018-04-10T09:48:43.685Z,45.38
2018-04-10T09:51:12.378Z,45.31
2018-04-10T09:53:41.165Z,45.48
2018-04-10T09:56:09.555Z,45.25
2018-04-10T09:58:37.904Z,44.88
2018-04-10T10:01:06.937Z,44.74
2018-04-10T10:03:35.731Z,44.50
2018-04-10T10:06:04.110Z,44.13
2018-04-10T10:08:32.541Z,44.42
2018-04-10T10:11:00.970Z,44.88
2018-04-10T10:13:29.216Z,44.65
2018-04-10T10:15:58.314Z,44.57
2018-04-10T10:18:26.610Z,44.37
2018-04-10T10:20:55.523Z,44.09
2018-04-10T10:23:24.321Z,44.13
2018-04-10T10:25:52.793Z,44.10
2018-04-10T10:28:21.092Z,43.50
2018-04-10T10:30:49.380Z,43.81
2018-04-10T10:33:17.717Z,43.84
2018-04-10T10:35:46.152Z,43.46
2018-04-10T10:38:15.659Z,43.46
2018-04-10T10:40:44.945Z,43.50
2018-04-10T10:43:13.333Z,43.15
2018-04-10T10:45:42.837Z,43.00
2018-04-10T10:48:12.002Z,43.60
2018-04-10T10:50:40.566Z,43.38
2018-04-10T10:53:08.878Z,43.22
2018-04-10T10:55:37.323Z,43.50
2018-04-10T10:58:05.787Z,43.79
2018-04-10T11:00:34.225Z,43.03
2018-04-10T11:03:02.541Z,43.03
2018-04-10T11:05:30.957Z,42.69
2018-04-10T11:07:59.240Z,42.97
2018-04-10T11:10:27.614Z,43.32
2018-04-10T11:12:55.971Z,43.06
2018-04-10T11:15:24.316Z,42.98
2018-04-10T11:17:53.482Z,43.12
2018-04-10T11:20:22.455Z,43.06
2018-04-10T11:22:51.066Z,43.05
2018-04-10T11:25:19.365Z,42.54
2018-04-10T11:27:48.491Z,41.89
2018-04-10T11:30:17.277Z,41.63
2018-04-10T11:32:45.549Z,42.12
2018-04-10T11:35:14.201Z,42.37
2018-04-10T11:37:42.805Z,41.83
2018-04-10T11:40:11.926Z,41.62
2018-04-10T11:42:40.423Z,41.42
2018-04-10T11:45:08.932Z,41.90
2018-04-10T11:47:37.602Z,42.35
2018-04-10T11:50:06.249Z,42.03
2018-04-10T11:52:35.359Z,41.49
2018-04-10T11:55:03.925Z,40.80
2018-04-10T11:57:33.622Z,38.68
2018-04-10T12:00:02.770Z,38.51
2018-04-10T12:02:31.231Z,39.02
2018-04-10T12:04:59.609Z,39.06
2018-04-10T12:07:28.811Z,39.18
2018-04-10T12:09:57.196Z,39.45
2018-04-10T12:12:25.678Z,39.66
2018-04-10T12:14:54.037Z,39.13
2018-04-10T12:17:22.423Z,38.85
2018-04-10T12:19:51.070Z,38.39
2018-04-10T12:22:19.366Z,38.20
2018-04-10T12:24:48.526Z,38.33
2018-04-10T12:27:17.046Z,37.47
2018-04-10T12:29:46.311Z,37.99
2018-04-10T12:32:14.884Z,37.78
2018-04-10T12:34:43.259Z,37.68
2018-04-10T12:37:11.653Z,37.28
2018-04-10T12:39:40.513Z,37.21
2018-04-10T12:42:08.843Z,37.88
2018-04-10T12:44:38.612Z,38.03
2018-04-10T12:47:07.273Z,40.10
2018-04-10T12:49:35.766Z,39.70
2018-04-10T12:52:04.273Z,40.22
2018-04-10T12:54:32.876Z,39.69
2018-04-10T12:57:01.194Z,39.42
2018-04-10T12:59:29.577Z,39.31
2018-04-10T13:01:58.011Z,39.25
2018-04-10T13:04:26.811Z,39.19
2018-04-10T13:06:55.365Z,39.19
2018-04-10T13:09:23.906Z,38.72
2018-04-10T13:11:52.231Z,39.69
2018-04-10T13:14:20.857Z,39.56
2018-04-10T13:16:50.346Z,40.02
2018-04-10T13:19:18.643Z,39.62
2018-04-10T13:21:47.887Z,40.00
2018-04-10T13:24:17.165Z,39.98
2018-04-10T13:26:45.557Z,39.54
2018-04-10T13:29:14.191Z,39.76
2018-04-10T13:31:42.583Z,39.39
2018-04-10T13:34:11.862Z,39.53
2018-04-10T13:36:40.477Z,40.02
2018-04-10T13:39:09.606Z,39.91
2018-04-10T13:41:38.023Z,43.86
2018-04-10T13:44:06.602Z,42.72
2018-04-10T13:46:34.863Z,39.94
2018-04-10T13:49:03.150Z,39.74
2018-04-10T13:51:31.829Z,39.71
2018-04-10T13:54:01.067Z,39.06
2018-04-10T13:56:29.611Z,39.04
2018-04-10T13:58:57.946Z,39.11
2018-04-10T14:01:26.466Z,38.60
2018-04-10T14:03:54.958Z,37.85
2018-04-10T14:06:23.406Z,37.33
2018-04-10T14:08:52.501Z,36.58
2018-04-10T14:11:20.789Z,35.94
2018-04-10T14:13:49.844Z,36.03
2018-04-10T14:16:18.146Z,37.25
2018-04-10T14:18:46.437Z,38.82
2018-04-10T14:21:15.026Z,38.19
2018-04-10T14:23:45.105Z,38.61
2018-04-10T14:26:13.474Z,38.63
2018-04-10T14:28:41.965Z,39.13
2018-04-10T14:31:10.358Z,39.21
2018-04-10T14:33:45.392Z,39.77
2018-04-10T14:36:13.839Z,40.51
2018-04-10T14:38:42.222Z,41.02
2018-04-10T14:41:10.590Z,40.96
2018-04-10T14:43:39.044Z,41.36
2018-04-10T14:46:07.401Z,41.11
2018-04-10T14:48:36.598Z,41.46
2018-04-10T14:51:05.950Z,41.60
2018-04-10T14:53:34.531Z,41.49
2018-04-10T14:56:03.149Z,41.93
2018-04-10T14:58:31.661Z,41.58
2018-04-10T15:01:00.801Z,42.16
2018-04-10T15:03:29.114Z,42.62
2018-04-10T15:05:57.590Z,42.28
2018-04-10T15:08:25.957Z,42.63
2018-04-10T15:10:54.297Z,41.95
2018-04-10T15:13:22.675Z,42.01
2018-04-10T15:15:51.063Z,41.94
2018-04-10T15:18:19.691Z,42.64
2018-04-10T15:20:48.081Z,42.62
2018-04-10T15:23:17.325Z,42.65
2018-04-10T15:25:46.040Z,43.17
2018-04-10T15:28:15.583Z,43.75
2018-04-10T15:30:43.990Z,43.58
2018-04-10T15:33:12.497Z,43.89
2018-04-10T15:35:40.881Z,43.83
2018-04-10T15:38:09.276Z,43.51
2018-04-10T15:40:37.668Z,43.68
2018-04-10T15:43:06.906Z,43.45
2018-04-10T15:45:35.435Z,43.47
2018-04-10T15:48:04.079Z,43.84
2018-04-10T15:50:32.637Z,43.48
2018-04-10T15:53:01.005Z,43.82
2018-04-10T15:55:30.102Z,45.07
2018-04-10T15:57:59.341Z,45.39
2018-04-10T16:00:27.671Z,45.70
2018-04-10T16:02:57.041Z,44.78
2018-04-10T16:05:25.513Z,44.88
2018-04-10T16:07:53.897Z,45.38
2018-04-10T16:10:22.740Z,45.14
2018-04-10T16:12:51.401Z,44.78
2018-04-10T16:15:19.785Z,45.13
2018-04-10T16:17:49.039Z,45.19
2018-04-10T16:20:17.421Z,45.22
2018-04-10T16:22:46.017Z,45.21
2018-04-10T16:25:14.827Z,44.99
2018-04-10T16:27:43.961Z,45.06
2018-04-10T16:30:12.298Z,45.13
2018-04-10T16:32:41.519Z,45.05
2018-04-10T16:35:10.103Z,45.13
2018-04-10T16:37:38.617Z,45.45
2018-04-10T16:40:07.841Z,45.48
2018-04-10T16:42:36.258Z,45.79
2018-04-10T16:45:04.699Z,45.70
2018-04-10T16:47:33.333Z,45.83
2018-04-10T16:50:01.810Z,46.04
2018-04-10T16:52:30.425Z,46.09
2018-04-10T16:54:59.644Z,46.14
2018-04-10T16:57:28.553Z,46.19
2018-04-10T16:59:59.280Z,46.23
2018-04-10T17:02:29.942Z,46.22
2018-04-10T17:05:01.209Z,46.47
2018-04-10T17:07:35.426Z,46.26
2018-04-10T17:10:14.576Z,46.47
2018-04-10T17:12:44.265Z,46.65
2018-04-10T17:15:12.941Z,46.93
2018-04-10T17:17:41.446Z,46.98
2018-04-10T17:20:09.993Z,47.19
2018-04-10T17:22:40.092Z,47.47
2018-04-10T17:25:11.113Z,47.47
2018-04-10T17:27:39.569Z,47.87
2018-04-10T17:30:08.565Z,47.93
2018-04-10T17:32:37.022Z,48.26
2018-04-10T17:35:05.450Z,48.47
2018-04-10T17:37:33.971Z,48.16
2018-04-10T17:40:10.600Z,48.52
2018-04-10T17:42:40.546Z,48.77
2018-04-10T17:45:10.704Z,48.74
2018-04-10T17:47:39.808Z,48.87
2018-04-10T17:50:08.258Z,49.44
2018-04-10T17:52:37.113Z,49.55
2018-04-10T17:55:12.778Z,49.79
2018-04-10T17:57:41.199Z,50.12
2018-04-10T18:00:10.332Z,50.53
2018-04-10T18:02:39.071Z,50.64
2018-04-10T18:05:07.676Z,50.69
2018-04-10T18:07:37.306Z,51.02
2018-04-10T18:10:06.166Z,51.15
2018-04-10T18:12:34.523Z,51.53
2018-04-10T18:15:03.100Z,51.20
2018-04-10T18:17:33.561Z,51.40
2018-04-10T18:20:02.017Z,51.57
2018-04-10T18:22:31.172Z,51.76
2018-04-10T18:25:01.109Z,52.08
2018-04-10T18:27:29.508Z,51.96
2018-04-10T18:29:58.305Z,52.20
2018-04-10T18:32:26.753Z,52.48
2018-04-10T18:34:55.161Z,52.46
2018-04-10T18:37:23.742Z,52.77
2018-04-10T18:39:52.234Z,52.81
2018-04-10T18:42:20.789Z,53.09
2018-04-10T18:44:49.241Z,53.27
2018-04-10T18:47:17.628Z,53.50
2018-04-10T18:49:46.027Z,53.57
2018-04-10T18:52:14.368Z,53.59
2018-04-10T18:54:42.765Z,53.99
2018-04-10T18:57:12.133Z,54.59
2018-04-10T18:59:40.747Z,55.71
2018-04-10T19:02:09.911Z,56.77
2018-04-10T19:04:38.369Z,58.13
2018-04-10T19:07:06.893Z,59.05
2018-04-10T19:09:36.244Z,60.28
2018-04-10T19:12:04.770Z,61.65
2018-04-10T19:14:33.525Z,62.51
2018-04-10T19:17:01.950Z,63.07
2018-04-10T19:19:30.450Z,63.62
2018-04-10T19:21:59.019Z,64.41
2018-04-10T19:24:28.304Z,66.16
2018-04-10T19:26:56.763Z,67.66
2018-04-10T19:29:25.187Z,68.89
2018-04-10T19:31:53.643Z,70.31
2018-04-10T19:34:22.074Z,69.63
2018-04-10T19:36:50.487Z,69.73
2018-04-10T19:39:18.911Z,71.35
2018-04-10T19:41:48.135Z,71.47
2018-04-10T19:44:16.530Z,69.14
2018-04-10T19:46:44.880Z,70.96
2018-04-10T19:49:13.316Z,71.17
2018-04-10T19:51:41.814Z,71.26
2018-04-10T19:54:11.175Z,71.97
2018-04-10T19:56:39.539Z,72.09
2018-04-10T19:59:07.960Z,74.44
2018-04-10T20:01:36.637Z,74.54
2018-04-10T20:04:05.411Z,76.18
2018-04-10T20:06:34.360Z,76.51
2018-04-10T20:09:03.484Z,77.55
2018-04-10T20:11:32.112Z,78.23
2018-04-10T20:14:00.737Z,78.21
2018-04-10T20:16:29.524Z,78.46
2018-04-10T20:18:58.145Z,78.62
2018-04-10T20:21:26.729Z,79.12
2018-04-10T20:23:55.216Z,78.75
2018-04-10T20:26:30.389Z,78.60
2018-04-10T20:28:58.885Z,78.34
2018-04-10T20:31:27.461Z,78.42
2018-04-10T20:33:56.683Z,78.18
2018-04-10T20:36:25.262Z,78.37
2018-04-10T20:38:53.813Z,78.61
2018-04-10T20:41:23.079Z,78.93
2018-04-10T20:43:51.752Z,79.03
2018-04-10T20:46:20.218Z,79.62
2018-04-10T20:48:48.763Z,79.40
2018-04-10T20:51:18.078Z,79.38
2018-04-10T20:53:46.579Z,79.25
2018-04-10T20:56:15.095Z,78.61
2018-04-10T20:58:43.677Z,78.68
2018-04-10T21:01:12.257Z,78.65
2018-04-10T21:03:40.982Z,78.97
2018-04-10T21:06:10.109Z,78.67
2018-04-10T21:08:38.614Z,78.38
2018-04-10T21:11:07.150Z,78.20
2018-04-10T21:13:35.738Z,77.73
2018-04-10T21:16:04.387Z,77.83
2018-04-10T21:18:32.846Z,77.50
2018-04-10T21:21:01.443Z,78.01
2018-04-10T21:23:29.919Z,77.88
2018-04-10T21:25:58.396Z,77.96
2018-04-10T21:28:26.885Z,78.18
2018-04-10T21:30:55.394Z,78.61
2018-04-10T21:33:24.602Z,78.67
2018-04-10T21:35:53.808Z,78.70
2018-04-10T21:38:22.257Z,78.58
2018-04-10T21:40:51.597Z,78.87
2018-04-10T21:43:24.732Z,78.92
2018-04-10T21:46:00.192Z,79.02
2018-04-10T21:48:28.743Z,78.83
2018-04-10T21:50:57.222Z,79.06
2018-04-10T21:53:25.833Z,78.99
2018-04-10T21:55:54.348Z,78.87
2018-04-10T21:58:22.815Z,79.53
2018-04-10T22:00:52.075Z,79.85
2018-04-10T22:03:20.505Z,79.45
2018-04-10T22:05:49.311Z,78.33
2018-04-10T22:08:18.009Z,77.88
2018-04-10T22:10:46.454Z,77.71
2018-04-10T22:13:15.596Z,77.55
2018-04-10T22:15:43.973Z,77.25
2018-04-10T22:18:12.464Z,77.47
2018-04-10T22:20:40.855Z,77.51
2018-04-10T22:23:09.406Z,77.61
2018-04-10T22:25:37.878Z,77.19
2018-04-10T22:28:06.329Z,77.20
2018-04-10T22:30:34.719Z,77.19
2018-04-10T22:33:03.105Z,77.27
2018-04-10T22:35:31.571Z,76.91
2018-04-10T22:38:00.024Z,77.08
2018-04-10T22:40:29.195Z,77.06
2018-04-10T22:42:57.669Z,77.26
2018-04-10T22:45:26.070Z,77.16
2018-04-10T22:47:55.159Z,76.97
2018-04-10T22:50:23.550Z,77.04
2018-04-10T22:52:51.920Z,76.71
2018-04-10T22:55:21.131Z,76.60
2018-04-10T22:57:50.518Z,76.57
2018-04-10T23:00:19.189Z,77.22
2018-04-10T23:02:47.607Z,77.16
2018-04-10T23:05:16.023Z,76.65
2018-04-10T23:07:44.425Z,76.53
2018-04-10T23:10:12.786Z,76.40
2018-04-10T23:12:41.168Z,76.36
2018-04-10T23:15:09.902Z,76.62
2018-04-10T23:17:39.023Z,76.83
2018-04-10T23:20:07.425Z,76.51
2018-04-10T23:22:35.894Z,76.57
2018-04-10T23:25:04.391Z,76.40
2018-04-10T23:27:32.999Z,76.24
2018-04-10T23:30:01.368Z,76.38
2018-04-10T23:32:29.938Z,76.38
2018-04-10T23:34:58.367Z,76.15
2018-04-10T23:37:26.736Z,75.85
2018-04-10T23:39:55.346Z,75.76
2018-04-10T23:42:24.508Z,75.98
2018-04-10T23:44:53.049Z,75.76
2018-04-10T23:47:21.523Z,75.72
2018-04-10T23:49:50.644Z,74.96
2018-04-10T23:52:18.963Z,74.72
2018-04-10T23:54:47.551Z,74.48
2018-04-10T23:57:16.019Z,74.39
2018-04-10T23:59:44.395Z,74.48
